sensor_id;sensor_type;location;lat;lon;timestamp;P1;durP1;ratioP1;P2;durP2;ratioP2
27728;SDS011;15126;42.186;24.340;2023-02-28T00:00:36;13.57;;;10.33;;
27728;SDS011;15126;42.186;24.340;2023-02-28T00:03:04;16.80;;;11.53;;
27728;SDS011;15126;42.186;24.340;2023-02-28T00:05:31;13.27;;;10.83;;
27728;SDS011;15126;42.186;24.340;2023-02-28T00:07:58;14.37;;;10.07;;
27728;SDS011;15126;42.186;24.340;2023-02-28T00:10:25;11.80;;;10.00;;
27728;SDS011;15126;42.186;24.340;2023-02-28T00:12:56;11.20;;;9.73;;
27728;SDS011;15126;42.186;24.340;2023-02-28T00:15:26;14.47;;;10.93;;
27728;SDS011;15126;42.186;24.340;2023-02-28T00:17:53;18.93;;;10.33;;
27728;SDS011;15126;42.186;24.340;2023-02-28T00:20:20;12.97;;;10.37;;
27728;SDS011;15126;42.186;24.340;2023-02-28T00:22:48;11.80;;;9.50;;
27728;SDS011;15126;42.186;24.340;2023-02-28T00:25:16;12.23;;;10.40;;
27728;SDS011;15126;42.186;24.340;2023-02-28T00:27:45;16.57;;;11.83;;
27728;SDS011;15126;42.186;24.340;2023-02-28T00:30:14;15.27;;;10.03;;
27728;SDS011;15126;42.186;24.340;2023-02-28T00:32:42;14.07;;;11.13;;
27728;SDS011;15126;42.186;24.340;2023-02-28T00:35:09;14.70;;;10.73;;
27728;SDS011;15126;42.186;24.340;2023-02-28T00:37:37;15.10;;;11.43;;
27728;SDS011;15126;42.186;24.340;2023-02-28T00:40:04;11.87;;;10.17;;
27728;SDS011;15126;42.186;24.340;2023-02-28T00:42:33;13.87;;;9.60;;
27728;SDS011;15126;42.186;24.340;2023-02-28T00:45:00;11.30;;;10.17;;
27728;SDS011;15126;42.186;24.340;2023-02-28T00:47:30;12.60;;;9.97;;
27728;SDS011;15126;42.186;24.340;2023-02-28T00:49:57;10.37;;;8.60;;
27728;SDS011;15126;42.186;24.340;2023-02-28T00:52:24;9.80;;;8.60;;
27728;SDS011;15126;42.186;24.340;2023-02-28T00:54:51;15.73;;;11.00;;
27728;SDS011;15126;42.186;24.340;2023-02-28T00:57:18;13.10;;;9.70;;
27728;SDS011;15126;42.186;24.340;2023-02-28T00:59:45;10.73;;;9.03;;
27728;SDS011;15126;42.186;24.340;2023-02-28T01:02:11;14.03;;;9.83;;
27728;SDS011;15126;42.186;24.340;2023-02-28T01:04:40;13.13;;;11.07;;
27728;SDS011;15126;42.186;24.340;2023-02-28T01:07:06;13.83;;;10.53;;
27728;SDS011;15126;42.186;24.340;2023-02-28T01:09:33;15.37;;;11.13;;
27728;SDS011;15126;42.186;24.340;2023-02-28T01:12:00;15.10;;;11.13;;
27728;SDS011;15126;42.186;24.340;2023-02-28T01:14:27;12.13;;;10.43;;
27728;SDS011;15126;42.186;24.340;2023-02-28T01:16:54;15.87;;;11.77;;
27728;SDS011;15126;42.186;24.340;2023-02-28T01:19:21;13.00;;;11.37;;
27728;SDS011;15126;42.186;24.340;2023-02-28T01:21:49;15.20;;;10.97;;
27728;SDS011;15126;42.186;24.340;2023-02-28T01:24:16;18.07;;;10.77;;
27728;SDS011;15126;42.186;24.340;2023-02-28T01:26:43;12.23;;;10.90;;
27728;SDS011;15126;42.186;24.340;2023-02-28T01:29:10;13.60;;;11.07;;
27728;SDS011;15126;42.186;24.340;2023-02-28T01:31:36;15.90;;;10.27;;
27728;SDS011;15126;42.186;24.340;2023-02-28T01:34:03;14.80;;;10.57;;
27728;SDS011;15126;42.186;24.340;2023-02-28T01:36:30;16.00;;;11.10;;
27728;SDS011;15126;42.186;24.340;2023-02-28T01:38:58;14.77;;;12.00;;
27728;SDS011;15126;42.186;24.340;2023-02-28T01:41:26;13.67;;;10.47;;
27728;SDS011;15126;42.186;24.340;2023-02-28T01:43:59;15.63;;;10.73;;
27728;SDS011;15126;42.186;24.340;2023-02-28T01:46:29;14.97;;;11.03;;
27728;SDS011;15126;42.186;24.340;2023-02-28T01:48:58;17.30;;;11.87;;
27728;SDS011;15126;42.186;24.340;2023-02-28T01:51:30;13.90;;;10.00;;
27728;SDS011;15126;42.186;24.340;2023-02-28T01:54:02;15.37;;;11.33;;
27728;SDS011;15126;42.186;24.340;2023-02-28T01:56:32;13.40;;;11.23;;
27728;SDS011;15126;42.186;24.340;2023-02-28T01:59:02;15.40;;;10.93;;
27728;SDS011;15126;42.186;24.340;2023-02-28T02:01:30;14.37;;;10.53;;
27728;SDS011;15126;42.186;24.340;2023-02-28T02:03:59;15.10;;;11.20;;
27728;SDS011;15126;42.186;24.340;2023-02-28T02:06:29;13.63;;;10.77;;
27728;SDS011;15126;42.186;24.340;2023-02-28T02:09:02;12.90;;;11.20;;
27728;SDS011;15126;42.186;24.340;2023-02-28T02:11:29;14.47;;;9.87;;
27728;SDS011;15126;42.186;24.340;2023-02-28T02:14:07;16.50;;;11.60;;
27728;SDS011;15126;42.186;24.340;2023-02-28T02:16:51;14.53;;;11.87;;
27728;SDS011;15126;42.186;24.340;2023-02-28T02:25:54;13.10;;;9.97;;
27728;SDS011;15126;42.186;24.340;2023-02-28T02:34:36;10.27;;;9.13;;
27728;SDS011;15126;42.186;24.340;2023-02-28T02:37:08;18.20;;;10.23;;
27728;SDS011;15126;42.186;24.340;2023-02-28T02:39:44;15.53;;;10.13;;
27728;SDS011;15126;42.186;24.340;2023-02-28T02:42:20;17.93;;;10.27;;
27728;SDS011;15126;42.186;24.340;2023-02-28T02:44:53;13.20;;;10.53;;
27728;SDS011;15126;42.186;24.340;2023-02-28T02:47:27;14.70;;;10.47;;
27728;SDS011;15126;42.186;24.340;2023-02-28T02:49:59;18.40;;;10.90;;
27728;SDS011;15126;42.186;24.340;2023-02-28T02:52:33;10.90;;;9.77;;
27728;SDS011;15126;42.186;24.340;2023-02-28T02:55:05;11.40;;;9.37;;
27728;SDS011;15126;42.186;24.340;2023-02-28T02:57:36;16.07;;;11.67;;
27728;SDS011;15126;42.186;24.340;2023-02-28T03:00:10;14.67;;;10.80;;
27728;SDS011;15126;42.186;24.340;2023-02-28T03:02:38;11.30;;;8.83;;
27728;SDS011;15126;42.186;24.340;2023-02-28T03:05:09;16.77;;;12.57;;
27728;SDS011;15126;42.186;24.340;2023-02-28T03:07:41;13.83;;;11.83;;
27728;SDS011;15126;42.186;24.340;2023-02-28T03:10:31;14.73;;;13.23;;
27728;SDS011;15126;42.186;24.340;2023-02-28T03:13:03;19.23;;;14.13;;
27728;SDS011;15126;42.186;24.340;2023-02-28T03:15:44;23.70;;;13.90;;
27728;SDS011;15126;42.186;24.340;2023-02-28T03:18:18;22.03;;;13.37;;
27728;SDS011;15126;42.186;24.340;2023-02-28T03:20:56;23.80;;;12.57;;
27728;SDS011;15126;42.186;24.340;2023-02-28T03:23:32;25.77;;;13.03;;
27728;SDS011;15126;42.186;24.340;2023-02-28T03:26:06;22.23;;;13.47;;
27728;SDS011;15126;42.186;24.340;2023-02-28T03:28:40;30.87;;;13.60;;
27728;SDS011;15126;42.186;24.340;2023-02-28T03:31:12;26.07;;;14.30;;
27728;SDS011;15126;42.186;24.340;2023-02-28T03:33:43;20.03;;;13.47;;
27728;SDS011;15126;42.186;24.340;2023-02-28T03:36:21;20.67;;;13.23;;
27728;SDS011;15126;42.186;24.340;2023-02-28T03:38:54;20.27;;;14.37;;
27728;SDS011;15126;42.186;24.340;2023-02-28T03:41:30;18.90;;;12.77;;
27728;SDS011;15126;42.186;24.340;2023-02-28T03:44:01;22.80;;;13.23;;
27728;SDS011;15126;42.186;24.340;2023-02-28T03:46:32;21.40;;;13.00;;
27728;SDS011;15126;42.186;24.340;2023-02-28T03:49:06;22.83;;;13.33;;
27728;SDS011;15126;42.186;24.340;2023-02-28T03:51:41;17.77;;;12.80;;
27728;SDS011;15126;42.186;24.340;2023-02-28T03:54:12;20.40;;;12.70;;
27728;SDS011;15126;42.186;24.340;2023-02-28T03:56:43;17.90;;;12.87;;
27728;SDS011;15126;42.186;24.340;2023-02-28T03:59:15;17.20;;;11.43;;
27728;SDS011;15126;42.186;24.340;2023-02-28T04:01:48;22.00;;;11.93;;
27728;SDS011;15126;42.186;24.340;2023-02-28T04:04:17;22.63;;;13.47;;
27728;SDS011;15126;42.186;24.340;2023-02-28T04:06:45;19.03;;;12.20;;
27728;SDS011;15126;42.186;24.340;2023-02-28T04:09:16;16.50;;;13.00;;
27728;SDS011;15126;42.186;24.340;2023-02-28T04:11:44;24.70;;;13.17;;
27728;SDS011;15126;42.186;24.340;2023-02-28T04:14:14;19.67;;;13.60;;
27728;SDS011;15126;42.186;24.340;2023-02-28T04:16:41;22.47;;;14.43;;
27728;SDS011;15126;42.186;24.340;2023-02-28T04:19:08;29.37;;;14.97;;
27728;SDS011;15126;42.186;24.340;2023-02-28T04:21:37;27.87;;;14.60;;
27728;SDS011;15126;42.186;24.340;2023-02-28T04:24:06;26.73;;;15.53;;
27728;SDS011;15126;42.186;24.340;2023-02-28T04:26:39;22.47;;;15.87;;
27728;SDS011;15126;42.186;24.340;2023-02-28T04:29:09;27.97;;;17.23;;
27728;SDS011;15126;42.186;24.340;2023-02-28T04:31:38;28.17;;;17.90;;
27728;SDS011;15126;42.186;24.340;2023-02-28T04:34:05;28.17;;;17.47;;
27728;SDS011;15126;42.186;24.340;2023-02-28T04:36:32;23.43;;;17.73;;
27728;SDS011;15126;42.186;24.340;2023-02-28T04:38:59;31.27;;;19.57;;
27728;SDS011;15126;42.186;24.340;2023-02-28T04:41:27;29.83;;;19.10;;
27728;SDS011;15126;42.186;24.340;2023-02-28T04:43:54;29.27;;;18.50;;
27728;SDS011;15126;42.186;24.340;2023-02-28T04:46:22;25.03;;;19.63;;
27728;SDS011;15126;42.186;24.340;2023-02-28T04:48:49;30.43;;;19.07;;
27728;SDS011;15126;42.186;24.340;2023-02-28T04:51:17;24.40;;;19.77;;
27728;SDS011;15126;42.186;24.340;2023-02-28T04:53:44;24.57;;;18.37;;
27728;SDS011;15126;42.186;24.340;2023-02-28T04:56:12;27.23;;;19.30;;
27728;SDS011;15126;42.186;24.340;2023-02-28T04:58:42;30.10;;;19.63;;
27728;SDS011;15126;42.186;24.340;2023-02-28T05:01:20;26.50;;;19.43;;
27728;SDS011;15126;42.186;24.340;2023-02-28T05:03:49;23.73;;;18.40;;
27728;SDS011;15126;42.186;24.340;2023-02-28T05:06:16;30.33;;;20.00;;
27728;SDS011;15126;42.186;24.340;2023-02-28T05:08:44;24.37;;;18.97;;
27728;SDS011;15126;42.186;24.340;2023-02-28T05:11:15;28.30;;;18.93;;
27728;SDS011;15126;42.186;24.340;2023-02-28T05:13:45;24.03;;;18.20;;
27728;SDS011;15126;42.186;24.340;2023-02-28T05:16:12;19.67;;;17.53;;
27728;SDS011;15126;42.186;24.340;2023-02-28T05:18:39;24.23;;;18.33;;
27728;SDS011;15126;42.186;24.340;2023-02-28T05:21:06;26.03;;;19.97;;
27728;SDS011;15126;42.186;24.340;2023-02-28T05:23:53;21.60;;;19.13;;
27728;SDS011;15126;42.186;24.340;2023-02-28T05:26:21;24.33;;;18.13;;
27728;SDS011;15126;42.186;24.340;2023-02-28T05:28:50;30.20;;;19.47;;
27728;SDS011;15126;42.186;24.340;2023-02-28T05:31:17;23.83;;;18.47;;
27728;SDS011;15126;42.186;24.340;2023-02-28T05:33:43;24.80;;;18.37;;
27728;SDS011;15126;42.186;24.340;2023-02-28T05:36:10;26.60;;;19.37;;
27728;SDS011;15126;42.186;24.340;2023-02-28T05:38:37;22.90;;;17.17;;
27728;SDS011;15126;42.186;24.340;2023-02-28T05:41:05;22.40;;;18.47;;
27728;SDS011;15126;42.186;24.340;2023-02-28T05:43:33;25.93;;;19.07;;
27728;SDS011;15126;42.186;24.340;2023-02-28T05:46:03;22.03;;;16.70;;
27728;SDS011;15126;42.186;24.340;2023-02-28T05:48:31;21.50;;;17.67;;
27728;SDS011;15126;42.186;24.340;2023-02-28T05:50:58;24.73;;;17.00;;
27728;SDS011;15126;42.186;24.340;2023-02-28T05:53:25;26.53;;;18.83;;
27728;SDS011;15126;42.186;24.340;2023-02-28T05:55:52;23.20;;;18.73;;
27728;SDS011;15126;42.186;24.340;2023-02-28T05:58:19;18.60;;;15.93;;
27728;SDS011;15126;42.186;24.340;2023-02-28T06:00:46;24.27;;;17.93;;
27728;SDS011;15126;42.186;24.340;2023-02-28T06:03:15;17.97;;;15.83;;
27728;SDS011;15126;42.186;24.340;2023-02-28T06:05:42;20.87;;;17.97;;
27728;SDS011;15126;42.186;24.340;2023-02-28T06:08:09;22.03;;;17.57;;
27728;SDS011;15126;42.186;24.340;2023-02-28T06:10:36;22.50;;;18.43;;
27728;SDS011;15126;42.186;24.340;2023-02-28T06:13:03;26.27;;;19.37;;
27728;SDS011;15126;42.186;24.340;2023-02-28T06:15:32;28.47;;;19.07;;
27728;SDS011;15126;42.186;24.340;2023-02-28T06:17:59;29.43;;;22.97;;
27728;SDS011;15126;42.186;24.340;2023-02-28T06:20:28;25.97;;;21.23;;
27728;SDS011;15126;42.186;24.340;2023-02-28T06:22:55;24.90;;;22.13;;
27728;SDS011;15126;42.186;24.340;2023-02-28T06:25:23;28.07;;;24.17;;
27728;SDS011;15126;42.186;24.340;2023-02-28T06:27:50;36.17;;;25.83;;
27728;SDS011;15126;42.186;24.340;2023-02-28T06:30:17;42.00;;;29.17;;
27728;SDS011;15126;42.186;24.340;2023-02-28T06:32:48;36.70;;;25.23;;
27728;SDS011;15126;42.186;24.340;2023-02-28T06:35:15;35.77;;;22.97;;
27728;SDS011;15126;42.186;24.340;2023-02-28T06:37:44;37.57;;;24.40;;
27728;SDS011;15126;42.186;24.340;2023-02-28T06:40:12;51.73;;;32.67;;
27728;SDS011;15126;42.186;24.340;2023-02-28T06:42:39;41.57;;;27.50;;
27728;SDS011;15126;42.186;24.340;2023-02-28T06:45:06;51.77;;;31.67;;
27728;SDS011;15126;42.186;24.340;2023-02-28T06:47:35;43.17;;;29.20;;
27728;SDS011;15126;42.186;24.340;2023-02-28T06:50:02;48.53;;;30.00;;
27728;SDS011;15126;42.186;24.340;2023-02-28T06:52:30;37.50;;;24.93;;
27728;SDS011;15126;42.186;24.340;2023-02-28T06:54:58;41.53;;;29.33;;
27728;SDS011;15126;42.186;24.340;2023-02-28T06:57:27;54.83;;;34.10;;
27728;SDS011;15126;42.186;24.340;2023-02-28T06:59:56;58.93;;;34.77;;
27728;SDS011;15126;42.186;24.340;2023-02-28T07:02:23;49.20;;;32.07;;
27728;SDS011;15126;42.186;24.340;2023-02-28T07:04:50;44.00;;;28.30;;
27728;SDS011;15126;42.186;24.340;2023-02-28T07:07:17;61.10;;;39.97;;
27728;SDS011;15126;42.186;24.340;2023-02-28T07:09:44;45.87;;;30.47;;
27728;SDS011;15126;42.186;24.340;2023-02-28T07:12:12;34.13;;;26.57;;
27728;SDS011;15126;42.186;24.340;2023-02-28T07:14:39;33.50;;;25.90;;
27728;SDS011;15126;42.186;24.340;2023-02-28T07:17:06;75.90;;;47.40;;
27728;SDS011;15126;42.186;24.340;2023-02-28T07:19:33;42.60;;;29.90;;
27728;SDS011;15126;42.186;24.340;2023-02-28T07:22:00;44.77;;;30.90;;
27728;SDS011;15126;42.186;24.340;2023-02-28T07:24:27;62.00;;;38.90;;
27728;SDS011;15126;42.186;24.340;2023-02-28T07:26:55;42.53;;;29.90;;
27728;SDS011;15126;42.186;24.340;2023-02-28T07:29:23;65.13;;;37.37;;
27728;SDS011;15126;42.186;24.340;2023-02-28T07:31:50;67.60;;;37.47;;
27728;SDS011;15126;42.186;24.340;2023-02-28T07:34:18;52.57;;;31.50;;
27728;SDS011;15126;42.186;24.340;2023-02-28T07:36:45;57.73;;;34.13;;
27728;SDS011;15126;42.186;24.340;2023-02-28T07:39:12;58.87;;;35.00;;
27728;SDS011;15126;42.186;24.340;2023-02-28T07:41:39;54.87;;;36.03;;
27728;SDS011;15126;42.186;24.340;2023-02-28T07:44:08;57.00;;;37.07;;
27728;SDS011;15126;42.186;24.340;2023-02-28T07:46:37;85.53;;;47.00;;
27728;SDS011;15126;42.186;24.340;2023-02-28T07:49:04;54.10;;;35.37;;
27728;SDS011;15126;42.186;24.340;2023-02-28T07:51:31;65.17;;;38.80;;
27728;SDS011;15126;42.186;24.340;2023-02-28T07:53:58;40.93;;;28.00;;
27728;SDS011;15126;42.186;24.340;2023-02-28T07:56:27;51.83;;;34.73;;
27728;SDS011;15126;42.186;24.340;2023-02-28T07:58:54;56.27;;;36.67;;
27728;SDS011;15126;42.186;24.340;2023-02-28T08:01:21;68.57;;;39.33;;
27728;SDS011;15126;42.186;24.340;2023-02-28T08:03:49;45.13;;;29.20;;
27728;SDS011;15126;42.186;24.340;2023-02-28T08:06:19;61.13;;;35.90;;
27728;SDS011;15126;42.186;24.340;2023-02-28T08:08:47;36.20;;;27.97;;
27728;SDS011;15126;42.186;24.340;2023-02-28T08:11:15;58.23;;;36.57;;
27728;SDS011;15126;42.186;24.340;2023-02-28T08:13:42;43.70;;;28.53;;
27728;SDS011;15126;42.186;24.340;2023-02-28T08:16:10;112.93;;;56.67;;
27728;SDS011;15126;42.186;24.340;2023-02-28T08:18:39;73.37;;;40.80;;
27728;SDS011;15126;42.186;24.340;2023-02-28T08:21:07;62.53;;;36.13;;
27728;SDS011;15126;42.186;24.340;2023-02-28T08:23:35;52.87;;;32.40;;
27728;SDS011;15126;42.186;24.340;2023-02-28T08:26:02;43.90;;;29.77;;
27728;SDS011;15126;42.186;24.340;2023-02-28T08:28:30;37.80;;;28.00;;
27728;SDS011;15126;42.186;24.340;2023-02-28T08:30:57;37.63;;;27.53;;
27728;SDS011;15126;42.186;24.340;2023-02-28T08:33:24;36.63;;;29.03;;
27728;SDS011;15126;42.186;24.340;2023-02-28T08:35:53;52.83;;;31.40;;
27728;SDS011;15126;42.186;24.340;2023-02-28T08:38:21;38.77;;;29.10;;
27728;SDS011;15126;42.186;24.340;2023-02-28T08:40:49;47.70;;;29.03;;
27728;SDS011;15126;42.186;24.340;2023-02-28T08:43:16;39.40;;;27.17;;
27728;SDS011;15126;42.186;24.340;2023-02-28T08:45:46;46.17;;;30.70;;
27728;SDS011;15126;42.186;24.340;2023-02-28T08:48:13;47.70;;;27.70;;
27728;SDS011;15126;42.186;24.340;2023-02-28T08:50:39;37.60;;;28.77;;
27728;SDS011;15126;42.186;24.340;2023-02-28T08:53:06;33.90;;;27.63;;
27728;SDS011;15126;42.186;24.340;2023-02-28T08:55:35;58.80;;;34.17;;
27728;SDS011;15126;42.186;24.340;2023-02-28T08:58:02;55.80;;;35.47;;
27728;SDS011;15126;42.186;24.340;2023-02-28T09:00:29;51.93;;;33.40;;
27728;SDS011;15126;42.186;24.340;2023-02-28T09:02:56;47.03;;;32.33;;
27728;SDS011;15126;42.186;24.340;2023-02-28T09:05:22;47.67;;;31.93;;
27728;SDS011;15126;42.186;24.340;2023-02-28T09:07:49;35.20;;;28.60;;
27728;SDS011;15126;42.186;24.340;2023-02-28T09:10:16;40.60;;;32.37;;
27728;SDS011;15126;42.186;24.340;2023-02-28T09:12:45;42.73;;;30.07;;
27728;SDS011;15126;42.186;24.340;2023-02-28T09:15:12;36.87;;;30.13;;
27728;SDS011;15126;42.186;24.340;2023-02-28T09:17:39;41.50;;;29.63;;
27728;SDS011;15126;42.186;24.340;2023-02-28T09:20:06;44.97;;;31.73;;
27728;SDS011;15126;42.186;24.340;2023-02-28T09:22:34;42.13;;;31.87;;
27728;SDS011;15126;42.186;24.340;2023-02-28T09:25:01;41.70;;;30.87;;
27728;SDS011;15126;42.186;24.340;2023-02-28T09:27:28;48.00;;;31.50;;
27728;SDS011;15126;42.186;24.340;2023-02-28T09:29:56;38.90;;;30.97;;
27728;SDS011;15126;42.186;24.340;2023-02-28T09:32:23;42.67;;;32.43;;
27728;SDS011;15126;42.186;24.340;2023-02-28T09:34:50;39.47;;;31.43;;
27728;SDS011;15126;42.186;24.340;2023-02-28T09:37:17;40.47;;;31.43;;
27728;SDS011;15126;42.186;24.340;2023-02-28T09:39:44;40.20;;;31.43;;
27728;SDS011;15126;42.186;24.340;2023-02-28T09:42:13;42.17;;;33.27;;
27728;SDS011;15126;42.186;24.340;2023-02-28T09:44:47;43.87;;;32.40;;
27728;SDS011;15126;42.186;24.340;2023-02-28T09:47:20;49.30;;;32.83;;
27728;SDS011;15126;42.186;24.340;2023-02-28T09:49:53;42.20;;;31.63;;
27728;SDS011;15126;42.186;24.340;2023-02-28T09:52:26;39.03;;;31.10;;
27728;SDS011;15126;42.186;24.340;2023-02-28T09:54:58;42.87;;;34.27;;
27728;SDS011;15126;42.186;24.340;2023-02-28T09:57:30;40.37;;;31.43;;
27728;SDS011;15126;42.186;24.340;2023-02-28T10:00:02;46.97;;;33.90;;
27728;SDS011;15126;42.186;24.340;2023-02-28T10:02:57;46.53;;;32.97;;
27728;SDS011;15126;42.186;24.340;2023-02-28T10:05:31;39.97;;;30.70;;
27728;SDS011;15126;42.186;24.340;2023-02-28T10:08:05;51.07;;;35.53;;
27728;SDS011;15126;42.186;24.340;2023-02-28T10:10:39;49.23;;;35.07;;
27728;SDS011;15126;42.186;24.340;2023-02-28T10:13:12;50.00;;;35.17;;
27728;SDS011;15126;42.186;24.340;2023-02-28T10:15:53;50.60;;;38.47;;
27728;SDS011;15126;42.186;24.340;2023-02-28T10:18:27;51.43;;;36.03;;
27728;SDS011;15126;42.186;24.340;2023-02-28T10:21:00;54.10;;;36.30;;
27728;SDS011;15126;42.186;24.340;2023-02-28T10:23:31;46.00;;;36.80;;
27728;SDS011;15126;42.186;24.340;2023-02-28T10:26:05;53.00;;;39.23;;
27728;SDS011;15126;42.186;24.340;2023-02-28T10:28:38;46.73;;;36.43;;
27728;SDS011;15126;42.186;24.340;2023-02-28T10:31:05;54.60;;;40.47;;
27728;SDS011;15126;42.186;24.340;2023-02-28T10:33:41;53.10;;;36.83;;
27728;SDS011;15126;42.186;24.340;2023-02-28T10:36:08;49.47;;;36.73;;
27728;SDS011;15126;42.186;24.340;2023-02-28T10:38:42;53.70;;;40.33;;
27728;SDS011;15126;42.186;24.340;2023-02-28T10:41:10;56.67;;;39.97;;
27728;SDS011;15126;42.186;24.340;2023-02-28T10:43:39;55.47;;;45.97;;
27728;SDS011;15126;42.186;24.340;2023-02-28T10:46:12;53.80;;;42.90;;
27728;SDS011;15126;42.186;24.340;2023-02-28T10:48:59;45.47;;;35.93;;
27728;SDS011;15126;42.186;24.340;2023-02-28T10:51:34;42.87;;;35.07;;
27728;SDS011;15126;42.186;24.340;2023-02-28T10:54:03;52.83;;;37.27;;
27728;SDS011;15126;42.186;24.340;2023-02-28T10:56:31;42.73;;;34.27;;
27728;SDS011;15126;42.186;24.340;2023-02-28T10:58:59;45.97;;;36.50;;
27728;SDS011;15126;42.186;24.340;2023-02-28T11:01:35;49.03;;;38.00;;
27728;SDS011;15126;42.186;24.340;2023-02-28T11:04:17;48.73;;;36.37;;
27728;SDS011;15126;42.186;24.340;2023-02-28T11:06:46;48.83;;;39.40;;
27728;SDS011;15126;42.186;24.340;2023-02-28T11:09:18;63.50;;;51.10;;
27728;SDS011;15126;42.186;24.340;2023-02-28T11:11:49;58.33;;;37.77;;
27728;SDS011;15126;42.186;24.340;2023-02-28T11:14:18;49.33;;;38.90;;
27728;SDS011;15126;42.186;24.340;2023-02-28T11:16:47;50.33;;;37.33;;
27728;SDS011;15126;42.186;24.340;2023-02-28T11:19:19;45.37;;;39.40;;
27728;SDS011;15126;42.186;24.340;2023-02-28T11:21:51;52.20;;;39.30;;
27728;SDS011;15126;42.186;24.340;2023-02-28T11:24:22;59.57;;;45.40;;
27728;SDS011;15126;42.186;24.340;2023-02-28T11:26:53;56.83;;;43.13;;
27728;SDS011;15126;42.186;24.340;2023-02-28T11:29:21;52.87;;;39.13;;
27728;SDS011;15126;42.186;24.340;2023-02-28T11:32:00;46.70;;;37.87;;
27728;SDS011;15126;42.186;24.340;2023-02-28T11:34:35;51.60;;;40.13;;
27728;SDS011;15126;42.186;24.340;2023-02-28T11:37:03;49.97;;;39.33;;
27728;SDS011;15126;42.186;24.340;2023-02-28T11:39:32;56.17;;;39.27;;
27728;SDS011;15126;42.186;24.340;2023-02-28T11:42:04;53.50;;;40.03;;
27728;SDS011;15126;42.186;24.340;2023-02-28T11:44:45;62.63;;;48.13;;
27728;SDS011;15126;42.186;24.340;2023-02-28T11:47:23;48.30;;;40.57;;
27728;SDS011;15126;42.186;24.340;2023-02-28T11:50:03;48.27;;;36.67;;
27728;SDS011;15126;42.186;24.340;2023-02-28T11:52:42;48.97;;;37.77;;
27728;SDS011;15126;42.186;24.340;2023-02-28T11:55:16;50.70;;;40.67;;
27728;SDS011;15126;42.186;24.340;2023-02-28T11:57:59;47.97;;;38.30;;
27728;SDS011;15126;42.186;24.340;2023-02-28T12:00:49;56.10;;;40.53;;
27728;SDS011;15126;42.186;24.340;2023-02-28T12:03:28;55.40;;;39.60;;
27728;SDS011;15126;42.186;24.340;2023-02-28T12:06:09;50.93;;;39.83;;
27728;SDS011;15126;42.186;24.340;2023-02-28T12:08:44;45.43;;;37.67;;
27728;SDS011;15126;42.186;24.340;2023-02-28T12:11:19;46.23;;;37.13;;
27728;SDS011;15126;42.186;24.340;2023-02-28T12:14:01;61.17;;;44.17;;
27728;SDS011;15126;42.186;24.340;2023-02-28T12:16:43;54.03;;;43.50;;
27728;SDS011;15126;42.186;24.340;2023-02-28T12:19:25;57.87;;;45.90;;
27728;SDS011;15126;42.186;24.340;2023-02-28T12:22:15;58.60;;;45.17;;
27728;SDS011;15126;42.186;24.340;2023-02-28T12:25:01;68.60;;;48.37;;
27728;SDS011;15126;42.186;24.340;2023-02-28T12:28:03;66.03;;;47.10;;
27728;SDS011;15126;42.186;24.340;2023-02-28T12:30:31;63.10;;;46.90;;
27728;SDS011;15126;42.186;24.340;2023-02-28T12:33:01;63.10;;;47.30;;
27728;SDS011;15126;42.186;24.340;2023-02-28T12:35:32;64.60;;;48.37;;
27728;SDS011;15126;42.186;24.340;2023-02-28T12:38:06;63.80;;;50.33;;
27728;SDS011;15126;42.186;24.340;2023-02-28T12:40:42;65.87;;;47.50;;
27728;SDS011;15126;42.186;24.340;2023-02-28T12:43:12;55.03;;;45.97;;
27728;SDS011;15126;42.186;24.340;2023-02-28T12:45:43;66.40;;;48.40;;
27728;SDS011;15126;42.186;24.340;2023-02-28T12:48:15;65.17;;;50.13;;
27728;SDS011;15126;42.186;24.340;2023-02-28T12:50:48;71.07;;;49.57;;
27728;SDS011;15126;42.186;24.340;2023-02-28T12:53:18;70.40;;;49.73;;
27728;SDS011;15126;42.186;24.340;2023-02-28T12:55:56;67.23;;;49.30;;
27728;SDS011;15126;42.186;24.340;2023-02-28T12:58:33;70.50;;;51.17;;
27728;SDS011;15126;42.186;24.340;2023-02-28T13:04:38;69.10;;;50.70;;
27728;SDS011;15126;42.186;24.340;2023-02-28T13:07:28;75.67;;;51.83;;
27728;SDS011;15126;42.186;24.340;2023-02-28T13:10:15;60.27;;;45.30;;
27728;SDS011;15126;42.186;24.340;2023-02-28T13:12:47;69.00;;;51.27;;
27728;SDS011;15126;42.186;24.340;2023-02-28T13:15:17;77.47;;;53.97;;
27728;SDS011;15126;42.186;24.340;2023-02-28T13:17:49;70.17;;;52.97;;
27728;SDS011;15126;42.186;24.340;2023-02-28T13:20:19;74.53;;;54.70;;
27728;SDS011;15126;42.186;24.340;2023-02-28T13:22:47;75.53;;;54.40;;
27728;SDS011;15126;42.186;24.340;2023-02-28T13:31:33;73.27;;;52.33;;
27728;SDS011;15126;42.186;24.340;2023-02-28T13:34:38;63.80;;;50.43;;
27728;SDS011;15126;42.186;24.340;2023-02-28T13:40:13;67.37;;;49.20;;
27728;SDS011;15126;42.186;24.340;2023-02-28T13:43:07;62.53;;;47.57;;
27728;SDS011;15126;42.186;24.340;2023-02-28T13:45:35;56.57;;;46.03;;
27728;SDS011;15126;42.186;24.340;2023-02-28T13:48:05;57.30;;;44.77;;
27728;SDS011;15126;42.186;24.340;2023-02-28T13:50:43;60.20;;;43.60;;
27728;SDS011;15126;42.186;24.340;2023-02-28T13:56:19;63.07;;;45.77;;
27728;SDS011;15126;42.186;24.340;2023-02-28T13:58:54;60.67;;;47.33;;
27728;SDS011;15126;42.186;24.340;2023-02-28T14:01:31;64.73;;;47.23;;
27728;SDS011;15126;42.186;24.340;2023-02-28T14:07:27;54.87;;;43.27;;
27728;SDS011;15126;42.186;24.340;2023-02-28T14:09:58;61.20;;;45.80;;
27728;SDS011;15126;42.186;24.340;2023-02-28T14:18:25;49.87;;;41.17;;
27728;SDS011;15126;42.186;24.340;2023-02-28T14:20:57;49.70;;;43.20;;
27728;SDS011;15126;42.186;24.340;2023-02-28T14:23:39;46.67;;;41.17;;
27728;SDS011;15126;42.186;24.340;2023-02-28T14:26:37;53.40;;;42.60;;
27728;SDS011;15126;42.186;24.340;2023-02-28T14:29:30;52.23;;;44.83;;
27728;SDS011;15126;42.186;24.340;2023-02-28T14:32:06;50.90;;;43.47;;
27728;SDS011;15126;42.186;24.340;2023-02-28T14:34:42;51.63;;;43.70;;
27728;SDS011;15126;42.186;24.340;2023-02-28T14:37:16;53.93;;;44.30;;
27728;SDS011;15126;42.186;24.340;2023-02-28T14:39:47;52.90;;;44.23;;
27728;SDS011;15126;42.186;24.340;2023-02-28T14:44:59;54.57;;;45.53;;
27728;SDS011;15126;42.186;24.340;2023-02-28T14:47:27;50.23;;;43.77;;
27728;SDS011;15126;42.186;24.340;2023-02-28T14:49:57;55.00;;;45.63;;
27728;SDS011;15126;42.186;24.340;2023-02-28T14:52:25;59.33;;;47.40;;
27728;SDS011;15126;42.186;24.340;2023-02-28T14:54:56;54.70;;;44.57;;
27728;SDS011;15126;42.186;24.340;2023-02-28T14:57:26;56.03;;;46.03;;
27728;SDS011;15126;42.186;24.340;2023-02-28T14:59:58;54.70;;;46.90;;
27728;SDS011;15126;42.186;24.340;2023-02-28T15:02:29;58.90;;;47.90;;
27728;SDS011;15126;42.186;24.340;2023-02-28T15:04:57;59.43;;;47.73;;
27728;SDS011;15126;42.186;24.340;2023-02-28T15:07:26;62.67;;;49.50;;
27728;SDS011;15126;42.186;24.340;2023-02-28T15:10:15;60.77;;;48.73;;